Time,TemperatureF,DewpointF,PressureIn,WindDirection,WindDirectionDegrees,WindSpeedMPH,WindSpeedGustMPH,Humidity,HourlyPrecipIn,Conditions,Clouds,dailyrainin,SoftwareType,DateUTC
2013-03-24 00:01:00,18.0,13.0,30.04,South,186,1.0,2.0,81,0.00,,,0.04,,2013-03-24 06:01:00,
2013-03-24 00:11:00,18.0,13.0,30.04,South,186,1.0,2.0,81,0.00,,,0.04,,2013-03-24 06:11:00,
2013-03-24 00:21:00,18.0,13.0,30.04,South,186,1.0,2.0,81,0.00,,,0.04,,2013-03-24 06:21:00,
2013-03-24 00:32:00,17.0,12.0,30.04,East,98,5.0,7.0,80,0.00,,,0.04,,2013-03-24 06:32:00,
2013-03-24 00:42:00,17.0,12.0,30.04,East,98,5.0,7.0,80,0.00,,,0.04,,2013-03-24 06:42:00,
2013-03-24 00:52:00,17.0,12.0,30.04,NE,48,3.0,7.0,80,0.00,,,0.04,,2013-03-24 06:52:00,
2013-03-24 01:01:00,16.0,12.0,30.04,NE,41,3.0,5.0,83,0.00,,,0.04,,2013-03-24 07:01:00,
2013-03-24 01:11:00,16.0,12.0,30.04,NE,41,3.0,5.0,83,0.00,,,0.04,,2013-03-24 07:11:00,
2013-03-24 01:22:00,16.0,12.0,30.04,NE,41,0.0,3.0,83,0.00,,,0.04,,2013-03-24 07:22:00,
2013-03-24 01:31:00,17.0,12.0,30.03,East,101,3.0,7.0,80,0.00,,,0.04,,2013-03-24 07:31:00,
2013-03-24 01:42:00,17.0,12.0,30.03,East,101,3.0,7.0,80,0.00,,,0.04,,2013-03-24 07:42:00,
2013-03-24 01:52:00,17.0,12.0,30.03,ESE,123,1.0,5.0,80,0.00,,,0.04,,2013-03-24 07:52:00,
2013-03-24 02:02:00,16.0,11.0,30.03,ENE,57,2.0,3.0,81,0.00,,,0.04,,2013-03-24 08:02:00,
2013-03-24 02:12:00,16.0,11.0,30.03,ENE,57,2.0,3.0,81,0.00,,,0.04,,2013-03-24 08:12:00,
2013-03-24 02:22:00,16.0,11.0,30.03,NNE,31,3.0,5.0,82,0.00,,,0.04,,2013-03-24 08:22:00,
2013-03-24 02:31:00,15.0,11.0,30.03,NNE,32,2.0,4.0,83,0.00,,,0.04,,2013-03-24 08:31:00,
2013-03-24 02:41:00,15.0,11.0,30.03,NNE,32,2.0,4.0,83,0.00,,,0.04,,2013-03-24 08:41:00,
2013-03-24 02:52:00,16.0,12.0,30.03,NNE,32,2.0,4.0,84,0.00,,,0.04,,2013-03-24 08:52:00,
2013-03-24 03:01:00,15.0,11.0,30.03,NNE,32,2.0,3.0,85,0.00,,,0.04,,2013-03-24 09:01:00,
2013-03-24 03:12:00,15.0,11.0,30.03,NNE,32,2.0,3.0,85,0.00,,,0.04,,2013-03-24 09:12:00,
2013-03-24 03:21:00,15.0,12.0,30.03,NNE,32,1.0,4.0,86,0.00,,,0.04,,2013-03-24 09:21:00,
2013-03-24 03:32:00,15.0,12.0,30.03,NNE,32,2.0,3.0,86,0.00,,,0.04,,2013-03-24 09:32:00,
2013-03-24 03:42:00,15.0,12.0,30.03,NNE,32,2.0,3.0,86,0.00,,,0.04,,2013-03-24 09:42:00,
2013-03-24 03:52:00,15.0,12.0,30.03,NNE,32,1.0,3.0,86,0.00,,,0.04,,2013-03-24 09:52:00,
2013-03-24 04:02:00,15.0,11.0,30.03,NNE,32,2.0,5.0,85,0.00,,,0.04,,2013-03-24 10:02:00,
2013-03-24 04:12:00,15.0,11.0,30.03,NNE,32,2.0,5.0,85,0.00,,,0.04,,2013-03-24 10:12:00,
2013-03-24 04:22:00,15.0,11.0,30.03,NNE,32,2.0,3.0,83,0.00,,,0.04,,2013-03-24 10:22:00,
2013-03-24 04:32:00,14.0,10.0,30.03,NNE,32,3.0,4.0,84,0.00,,,0.04,,2013-03-24 10:32:00,
2013-03-24 04:41:00,14.0,10.0,30.03,NNE,32,3.0,4.0,84,0.00,,,0.04,,2013-03-24 10:41:00,
2013-03-24 04:52:00,14.0,11.0,30.03,NNE,33,2.0,5.0,86,0.00,,,0.04,,2013-03-24 10:52:00,
2013-03-24 05:02:00,14.0,11.0,30.03,NE,34,2.0,4.0,87,0.00,,,0.04,,2013-03-24 11:02:00,
2013-03-24 05:11:00,14.0,11.0,30.03,NE,34,2.0,4.0,87,0.00,,,0.04,,2013-03-24 11:11:00,
2013-03-24 05:21:00,14.0,11.0,30.03,NE,34,2.0,4.0,88,0.00,,,0.04,,2013-03-24 11:21:00,
2013-03-24 05:32:00,15.0,12.0,30.03,NE,34,1.0,5.0,88,0.00,,,0.04,,2013-03-24 11:32:00,
2013-03-24 05:42:00,15.0,12.0,30.03,NE,34,1.0,5.0,88,0.00,,,0.04,,2013-03-24 11:42:00,
2013-03-24 05:52:00,15.0,12.0,30.03,NE,34,1.0,2.0,87,0.00,,,0.04,,2013-03-24 11:52:00,
2013-03-24 06:02:00,15.0,12.0,30.03,NE,34,2.0,4.0,86,0.00,,,0.04,,2013-03-24 12:02:00,
2013-03-24 06:11:00,15.0,12.0,30.03,NE,34,2.0,4.0,86,0.00,,,0.04,,2013-03-24 12:11:00,
2013-03-24 06:22:00,14.0,11.0,30.03,NE,39,4.0,5.0,87,0.00,,,0.04,,2013-03-24 12:22:00,
2013-03-24 06:32:00,14.0,11.0,30.03,NE,39,2.0,5.0,88,0.00,,,0.04,,2013-03-24 12:32:00,
2013-03-24 06:42:00,14.0,11.0,30.03,NE,39,2.0,5.0,88,0.00,,,0.04,,2013-03-24 12:42:00,
2013-03-24 06:52:00,14.0,11.0,30.03,NE,39,3.0,5.0,88,0.00,,,0.04,,2013-03-24 12:52:00,
2013-03-24 07:01:00,14.0,11.0,30.04,NE,39,2.0,4.0,88,0.00,,,0.04,,2013-03-24 13:01:00,
2013-03-24 07:11:00,14.0,11.0,30.04,NE,39,2.0,4.0,88,0.00,,,0.04,,2013-03-24 13:11:00,
2013-03-24 07:22:00,14.0,11.0,30.04,NE,39,3.0,4.0,88,0.00,,,0.04,,2013-03-24 13:22:00,
2013-03-24 07:31:00,14.0,11.0,30.04,NE,39,2.0,3.0,88,0.00,,,0.04,,2013-03-24 13:31:00,
2013-03-24 07:42:00,14.0,11.0,30.04,NE,39,2.0,3.0,88,0.00,,,0.04,,2013-03-24 13:42:00,
2013-03-24 07:52:00,14.0,11.0,30.04,NE,39,1.0,4.0,88,0.00,,,0.04,,2013-03-24 13:52:00,
2013-03-24 08:01:00,14.0,11.0,30.04,NE,39,3.0,4.0,88,0.00,,,0.04,,2013-03-24 14:01:00,
2013-03-24 08:11:00,14.0,11.0,30.04,NE,39,3.0,4.0,88,0.00,,,0.04,,2013-03-24 14:11:00,
2013-03-24 08:21:00,14.0,11.0,30.04,NE,39,2.0,5.0,88,0.00,,,0.04,,2013-03-24 14:21:00,
2013-03-24 08:32:00,14.0,11.0,30.04,NE,39,3.0,4.0,88,0.00,,,0.04,,2013-03-24 14:32:00,
2013-03-24 08:42:00,14.0,11.0,30.04,NE,39,3.0,4.0,88,0.00,,,0.04,,2013-03-24 14:42:00,
2013-03-24 08:52:00,15.0,12.0,30.05,NE,40,1.0,4.0,88,0.00,,,0.04,,2013-03-24 14:52:00,
2013-03-24 09:01:00,17.0,14.0,30.05,NE,40,1.0,3.0,89,0.00,,,0.04,,2013-03-24 15:01:00,
2013-03-24 09:12:00,17.0,14.0,30.05,NE,40,1.0,3.0,89,0.00,,,0.04,,2013-03-24 15:12:00,
2013-03-24 09:22:00,18.0,15.0,30.05,East,92,4.0,7.0,87,0.00,,,0.04,,2013-03-24 15:22:00,
2013-03-24 09:32:00,19.0,16.0,30.05,East,92,0.0,5.0,88,0.00,,,0.04,,2013-03-24 15:32:00,
2013-03-24 09:42:00,19.0,16.0,30.05,East,92,0.0,5.0,88,0.00,,,0.04,,2013-03-24 15:42:00,
2013-03-24 09:53:00,21.0,16.0,30.05,East,92,1.0,2.0,81,0.00,,,0.04,,2013-03-24 15:53:00,
2013-03-24 10:02:00,20.0,15.0,30.06,NE,53,2.0,5.0,81,0.01,,,0.05,,2013-03-24 16:02:00,
2013-03-24 10:12:00,20.0,15.0,30.06,NE,53,2.0,5.0,81,0.01,,,0.05,,2013-03-24 16:12:00,
2013-03-24 10:22:00,20.0,15.0,30.06,NE,34,1.0,4.0,82,0.01,,,0.05,,2013-03-24 16:22:00,
2013-03-24 10:32:00,21.0,14.0,30.07,NE,36,0.0,3.0,75,0.01,,,0.05,,2013-03-24 16:32:00,
2013-03-24 10:42:00,21.0,14.0,30.07,NE,36,0.0,3.0,75,0.01,,,0.05,,2013-03-24 16:42:00,
2013-03-24 10:52:00,21.0,12.0,30.07,NE,36,0.0,2.0,68,0.01,,,0.05,,2013-03-24 16:52:00,
2013-03-24 11:02:00,22.0,12.0,30.08,SSW,209,3.0,5.0,65,0.00,,,0.05,,2013-03-24 17:02:00,
2013-03-24 11:12:00,22.0,12.0,30.08,SSW,209,3.0,5.0,65,0.00,,,0.05,,2013-03-24 17:12:00,
2013-03-24 11:22:00,23.0,10.0,30.08,West,261,5.0,9.0,58,0.00,,,0.05,,2013-03-24 17:22:00,
2013-03-24 11:32:00,23.0,12.0,30.08,West,273,4.0,7.0,61,0.00,,,0.05,,2013-03-24 17:32:00,
2013-03-24 11:42:00,23.0,12.0,30.08,West,273,4.0,7.0,61,0.00,,,0.05,,2013-03-24 17:42:00,
2013-03-24 11:53:00,23.0,12.0,30.08,West,272,1.0,5.0,63,0.00,,,0.05,,2013-03-24 17:53:00,
2013-03-24 12:01:00,24.0,11.0,30.08,ENE,74,3.0,8.0,56,0.00,,,0.05,,2013-03-24 18:01:00,
2013-03-24 12:11:00,24.0,11.0,30.08,ENE,74,3.0,8.0,56,0.00,,,0.05,,2013-03-24 18:11:00,
2013-03-24 12:22:00,23.0,10.0,30.09,NW,313,6.0,9.0,57,0.00,,,0.05,,2013-03-24 18:22:00,
2013-03-24 12:32:00,25.0,9.0,30.09,North,11,4.0,8.0,50,0.00,,,0.05,,2013-03-24 18:32:00,
2013-03-24 12:42:00,25.0,9.0,30.09,North,11,4.0,8.0,50,0.00,,,0.05,,2013-03-24 18:42:00,
2013-03-24 12:52:00,23.0,8.0,30.09,NW,319,4.0,11.0,52,0.00,,,0.05,,2013-03-24 18:52:00,
2013-03-24 13:02:00,26.0,8.0,30.08,West,267,4.0,8.0,45,0.00,,,0.05,,2013-03-24 19:02:00,
2013-03-24 13:11:00,26.0,8.0,30.08,West,267,4.0,8.0,45,0.00,,,0.05,,2013-03-24 19:11:00,
2013-03-24 13:22:00,24.0,5.0,30.09,North,360,4.0,11.0,44,0.00,,,0.03,,2013-03-24 19:22:00,
2013-03-24 13:31:00,24.0,6.0,30.09,North,349,2.0,3.0,46,0.00,,,0.03,,2013-03-24 19:31:00,
2013-03-24 13:42:00,24.0,6.0,30.09,North,349,2.0,3.0,46,0.00,,,0.03,,2013-03-24 19:42:00,
2013-03-24 13:53:00,24.0,4.0,30.08,WNW,303,4.0,12.0,41,0.00,,,0.03,,2013-03-24 19:53:00,
2013-03-24 14:02:00,26.0,10.0,30.09,NNE,28,6.0,9.0,50,0.00,,,0.03,,2013-03-24 20:02:00,
2013-03-24 14:12:00,26.0,10.0,30.09,NNE,28,6.0,9.0,50,0.00,,,0.03,,2013-03-24 20:12:00,
2013-03-24 14:22:00,24.0,15.0,30.09,ENE,70,7.0,10.0,68,0.00,,,0.02,,2013-03-24 20:22:00,
2013-03-24 14:31:00,25.0,13.0,30.08,North,5,2.0,8.0,59,0.00,,,0.02,,2013-03-24 20:31:00,
2013-03-24 14:42:00,25.0,13.0,30.08,North,5,2.0,8.0,59,0.00,,,0.02,,2013-03-24 20:42:00,
2013-03-24 14:53:00,25.0,13.0,30.08,NE,47,4.0,8.0,59,0.00,,,0.02,,2013-03-24 20:53:00,
2013-03-24 15:02:00,26.0,12.0,30.08,NNE,30,5.0,8.0,54,0.00,,,0.02,,2013-03-24 21:02:00,
2013-03-24 15:11:00,26.0,12.0,30.08,NNE,30,5.0,8.0,54,0.00,,,0.02,,2013-03-24 21:11:00,
2013-03-24 15:22:00,26.0,9.0,30.07,WNW,284,3.0,10.0,49,0.00,,,0.01,,2013-03-24 21:22:00,
2013-03-24 15:32:00,26.0,6.0,30.07,NW,326,6.0,11.0,41,0.00,,,0.01,,2013-03-24 21:32:00,
2013-03-24 15:42:00,26.0,6.0,30.07,NW,326,6.0,11.0,41,0.00,,,0.01,,2013-03-24 21:42:00,
2013-03-24 15:53:00,27.0,5.0,30.07,NW,315,2.0,10.0,38,0.00,,,0.01,,2013-03-24 21:53:00,
2013-03-24 16:02:00,27.0,5.0,30.07,NW,311,5.0,11.0,39,0.00,,,0.01,,2013-03-24 22:02:00,
2013-03-24 16:12:00,27.0,5.0,30.07,NW,311,5.0,11.0,39,0.00,,,0.01,,2013-03-24 22:12:00,
2013-03-24 16:22:00,26.0,3.0,30.07,NNW,338,2.0,6.0,36,0.00,,,0.01,,2013-03-24 22:22:00,
2013-03-24 16:32:00,27.0,6.0,30.07,NW,311,4.0,9.0,40,0.00,,,0.01,,2013-03-24 22:32:00,
2013-03-24 16:42:00,27.0,6.0,30.07,NW,311,4.0,9.0,40,0.00,,,0.01,,2013-03-24 22:42:00,
2013-03-24 16:52:00,27.0,5.0,30.07,NW,304,3.0,12.0,38,0.00,,,0.01,,2013-03-24 22:52:00,
2013-03-24 17:02:00,27.0,5.0,30.07,NW,324,3.0,9.0,39,0.00,,,0.01,,2013-03-24 23:02:00,
2013-03-24 17:11:00,27.0,5.0,30.07,NW,324,3.0,9.0,39,0.00,,,0.01,,2013-03-24 23:11:00,
2013-03-24 17:22:00,27.0,5.0,30.07,NW,325,4.0,8.0,38,0.00,,,0.01,,2013-03-24 23:22:00,
2013-03-24 17:31:00,28.0,6.0,30.07,NNW,335,1.0,8.0,39,0.00,,,0.01,,2013-03-24 23:31:00,
2013-03-24 17:42:00,28.0,6.0,30.07,NNW,335,1.0,8.0,39,0.00,,,0.01,,2013-03-24 23:42:00,
2013-03-24 17:52:00,28.0,5.0,30.07,NNW,330,6.0,10.0,37,0.00,,,0.01,,2013-03-24 23:52:00,
2013-03-24 18:01:00,26.0,6.0,30.07,WNW,294,2.0,7.0,41,0.00,,,0.01,,2013-03-25 00:01:00,
2013-03-24 18:11:00,26.0,6.0,30.07,WNW,294,2.0,7.0,41,0.00,,,0.01,,2013-03-25 00:11:00,
2013-03-24 18:22:00,26.0,6.0,30.06,NW,317,4.0,7.0,41,0.00,,,0.01,,2013-03-25 00:22:00,
2013-03-24 18:32:00,27.0,5.0,30.06,NW,311,2.0,5.0,38,0.00,,,0.01,,2013-03-25 00:32:00,
2013-03-24 18:42:00,27.0,5.0,30.06,NW,311,2.0,5.0,38,0.00,,,0.01,,2013-03-25 00:42:00,
2013-03-24 18:52:00,27.0,4.0,30.06,NNW,327,4.0,8.0,37,0.00,,,0.01,,2013-03-25 00:52:00,
2013-03-24 19:01:00,26.0,4.0,30.06,NNW,336,2.0,4.0,38,0.00,,,0.01,,2013-03-25 01:01:00,
2013-03-24 19:11:00,26.0,4.0,30.06,NNW,336,2.0,4.0,38,0.00,,,0.01,,2013-03-25 01:11:00,
2013-03-24 19:21:00,26.0,3.0,30.06,NNW,336,3.0,4.0,37,0.00,,,0.01,,2013-03-25 01:21:00,
2013-03-24 19:32:00,25.0,4.0,30.06,NNW,338,1.0,4.0,39,0.00,,,0.01,,2013-03-25 01:32:00,
2013-03-24 19:42:00,25.0,4.0,30.06,NNW,338,1.0,4.0,39,0.00,,,0.01,,2013-03-25 01:42:00,
2013-03-24 19:52:00,23.0,3.0,30.06,North,5,2.0,4.0,42,0.00,,,0.01,,2013-03-25 01:52:00,
2013-03-24 20:01:00,22.0,2.0,30.06,North,5,2.0,3.0,42,0.00,,,0.01,,2013-03-25 02:01:00,
2013-03-24 20:11:00,22.0,2.0,30.06,North,5,2.0,3.0,42,0.00,,,0.01,,2013-03-25 02:11:00,
2013-03-24 20:22:00,22.0,2.0,30.06,North,5,3.0,5.0,41,0.00,,,0.01,,2013-03-25 02:22:00,
2013-03-24 20:31:00,21.0,3.0,30.06,North,5,2.0,4.0,44,0.00,,,0.01,,2013-03-25 02:31:00,
2013-03-24 20:42:00,21.0,3.0,30.06,North,5,2.0,4.0,44,0.00,,,0.01,,2013-03-25 02:42:00,
2013-03-24 20:52:00,21.0,3.0,30.06,North,5,0.0,3.0,45,0.00,,,0.01,,2013-03-25 02:52:00,
2013-03-24 21:01:00,21.0,3.0,30.06,North,5,2.0,3.0,45,0.00,,,0.01,,2013-03-25 03:01:00,
2013-03-24 21:11:00,21.0,3.0,30.06,North,5,2.0,3.0,45,0.00,,,0.01,,2013-03-25 03:11:00,
2013-03-24 21:22:00,21.0,4.0,30.06,North,5,3.0,4.0,47,0.00,,,0.01,,2013-03-25 03:22:00,
2013-03-24 21:32:00,21.0,4.0,30.06,North,5,1.0,4.0,47,0.00,,,0.01,,2013-03-25 03:32:00,
2013-03-24 21:42:00,20.0,4.0,30.06,North,5,3.0,4.0,48,0.00,,,0.01,,2013-03-25 03:42:00,
2013-03-24 21:53:00,20.0,4.0,30.06,North,5,3.0,4.0,48,0.00,,,0.01,,2013-03-25 03:53:00,
2013-03-24 22:02:00,21.0,5.0,30.07,East,79,6.0,7.0,50,0.00,,,0.01,,2013-03-25 04:02:00,
2013-03-24 22:12:00,21.0,5.0,30.07,East,79,6.0,7.0,50,0.00,,,0.01,,2013-03-25 04:12:00,
2013-03-24 22:22:00,20.0,5.0,30.07,East,82,6.0,8.0,51,0.00,,,0.01,,2013-03-25 04:22:00,
2013-03-24 22:32:00,20.0,5.0,30.07,East,82,6.0,7.0,52,0.00,,,0.01,,2013-03-25 04:32:00,
2013-03-24 22:42:00,20.0,5.0,30.07,East,82,6.0,7.0,52,0.00,,,0.01,,2013-03-25 04:42:00,
2013-03-24 22:52:00,20.0,5.0,30.07,East,86,7.0,9.0,52,0.00,,,0.01,,2013-03-25 04:52:00,
2013-03-24 23:02:00,20.0,6.0,30.07,East,86,8.0,11.0,53,0.00,,,0.01,,2013-03-25 05:02:00,
2013-03-24 23:12:00,20.0,6.0,30.07,East,86,8.0,11.0,53,0.00,,,0.01,,2013-03-25 05:12:00,
2013-03-24 23:22:00,20.0,6.0,30.07,East,86,8.0,11.0,54,0.00,,,0.01,,2013-03-25 05:22:00,
2013-03-24 23:32:00,19.0,6.0,30.07,East,82,6.0,8.0,56,0.00,,,0.01,,2013-03-25 05:32:00,
2013-03-24 23:42:00,19.0,6.0,30.07,East,82,6.0,8.0,56,0.00,,,0.01,,2013-03-25 05:42:00,
2013-03-24 23:52:00,19.0,6.0,30.07,East,82,5.0,7.0,57,0.00,,,0.01,,2013-03-25 05:52:00,